YPT weather

Pender Harbour Seaplane Base
British Columbia, Canada

Public forecast

Using degrees Celsius for public forecast. Weather courtesy of forecast.io.

Closest aviation weather report (METAR) to Pender Harbour Seaplane Base

Report is more than 6 hours old.

Closest report is Powell River Airport, 22.4 nm (41.4 km) NW. Retrieved 2020/04/04 02:00 UTC (6 hours ago):

CYPW 040200Z 27005KT 20SM FEW070 BKN220 06/M02 A2994 RMK AC1CS7 AC TR HALO LAST STFD OBS NEXT OBS 041300 UTC SLP146

Closest aviation forecast (TAF) to Pender Harbour Seaplane Base

Closest forecast is Comox Airport, 33.9 nm (62.8 km) W. Retrieved 2020/04/04 06:42 UTC (2 hours ago):

TAF CYQQ 040539Z 0406/0506 VRB03KT P6SM BKN070 FM041200 VRB03KT P6SM SCT015 BKN040 TEMPO 0412/0420 P6SM -RA BKN015 BECMG 0416/0418 14010KT FM042000 12005KT P6SM FEW015 SCT040 BKN200 RMK NXT FCST BY 041200Z